createdAt,value
2023-12-08T00:02:21.114Z,97723.53
2023-12-08T00:04:52.101Z,97726.28
2023-12-08T00:07:23.041Z,97722.44
2023-12-08T00:09:53.964Z,97713.91
2023-12-08T00:12:24.689Z,97710.84
2023-12-08T00:14:55.735Z,97705.38
2023-12-08T00:17:29.252Z,97698.44
2023-12-08T00:20:00.139Z,97683.63
2023-12-08T00:22:31.251Z,97684.00
2023-12-08T00:25:02.166Z,97686.66
2023-12-08T00:27:33.105Z,97674.25
2023-12-08T00:30:03.930Z,97669.13
2023-12-08T00:32:37.793Z,97655.03
2023-12-08T00:35:10.300Z,97649.94
2023-12-08T00:37:41.106Z,97646.00
2023-12-08T00:40:13.190Z,97652.09
2023-12-08T00:42:44.036Z,97638.84
2023-12-08T00:45:15.223Z,97631.84
2023-12-08T00:47:48.981Z,97624.91
2023-12-08T00:50:20.561Z,97613.19
2023-12-08T00:52:51.295Z,97610.97
2023-12-08T00:55:22.002Z,97604.75
2023-12-08T00:57:53.200Z,97613.69
2023-12-08T01:00:24.181Z,97606.28
2023-12-08T01:02:57.845Z,97604.69
2023-12-08T01:05:28.488Z,97605.47
2023-12-08T01:07:59.278Z,97604.69
2023-12-08T01:10:30.103Z,97607.75
2023-12-08T01:13:00.827Z,97603.78
2023-12-08T01:15:31.660Z,97606.91
2023-12-08T01:18:05.374Z,97595.00
2023-12-08T01:20:37.739Z,97610.97
2023-12-08T01:23:08.396Z,97600.06
2023-12-08T01:25:39.165Z,97592.97
2023-12-08T01:28:09.808Z,97598.06
2023-12-08T01:30:40.415Z,97584.09
2023-12-08T01:33:13.786Z,97585.31
2023-12-08T01:35:44.614Z,97587.72
2023-12-08T01:38:15.555Z,97578.75
2023-12-08T01:40:46.493Z,97592.41
2023-12-08T01:43:17.414Z,97589.25
2023-12-08T01:45:48.165Z,97593.94
2023-12-08T01:48:21.785Z,97595.44
2023-12-08T01:50:53.058Z,97598.50
2023-12-08T01:53:23.803Z,97600.78
2023-12-08T01:55:54.788Z,97602.13
2023-12-08T01:58:26.131Z,97606.44
2023-12-08T02:00:57.097Z,97611.13
2023-12-08T02:03:32.554Z,97600.88
2023-12-08T02:06:04.445Z,97586.84
2023-12-08T02:08:36.986Z,97586.91
2023-12-08T02:11:08.691Z,97583.41
2023-12-08T02:13:39.955Z,97584.50
2023-12-08T02:16:14.302Z,97580.91
2023-12-08T02:18:49.059Z,97572.31
2023-12-08T02:21:20.315Z,97568.28
2023-12-08T02:23:54.375Z,97568.28
2023-12-08T02:26:25.199Z,97569.53
2023-12-08T02:28:56.494Z,97554.91
2023-12-08T02:31:31.293Z,97540.03
2023-12-08T02:34:03.676Z,97532.25
2023-12-08T02:36:35.424Z,97531.75
2023-12-08T02:39:12.422Z,97529.75
2023-12-08T02:41:43.222Z,97517.34
2023-12-08T02:44:14.037Z,97509.47
2023-12-08T02:46:45.139Z,97495.53
2023-12-08T02:49:16.082Z,97491.59
2023-12-08T02:51:46.759Z,97491.50
2023-12-08T02:54:20.215Z,97468.50
2023-12-08T02:56:50.972Z,97464.31
2023-12-08T02:59:21.852Z,97467.41
2023-12-08T03:01:52.833Z,97461.88
2023-12-08T03:04:23.984Z,97463.25
2023-12-08T03:06:54.859Z,97462.84
2023-12-08T03:09:28.357Z,97472.53
2023-12-08T03:11:59.709Z,97467.84
2023-12-08T03:14:30.571Z,97463.91
2023-12-08T03:17:01.547Z,97467.81
2023-12-08T03:19:32.378Z,97457.25
2023-12-08T03:22:03.208Z,97449.03
2023-12-08T03:24:36.840Z,97447.78
2023-12-08T03:27:08.441Z,97440.00
2023-12-08T03:29:43.584Z,97438.69
2023-12-08T03:32:14.603Z,97446.09
2023-12-08T03:34:45.563Z,97438.63
2023-12-08T03:37:16.615Z,97427.50
2023-12-08T03:39:51.326Z,97415.06
2023-12-08T03:42:22.118Z,97424.28
2023-12-08T03:44:53.007Z,97427.88
2023-12-08T03:47:24.361Z,97429.88
2023-12-08T03:49:55.397Z,97425.97
2023-12-08T03:52:26.274Z,97420.75
2023-12-08T03:54:59.959Z,97414.09
2023-12-08T03:57:30.818Z,97414.84
2023-12-08T04:00:01.928Z,97418.34
2023-12-08T04:02:35.802Z,97422.75
2023-12-08T04:05:06.943Z,97421.66
2023-12-08T04:07:38.050Z,97426.31
2023-12-08T04:10:12.928Z,97420.44
2023-12-08T04:12:43.582Z,97424.78
2023-12-08T04:15:15.612Z,97429.06
2023-12-08T04:17:46.644Z,97426.03
2023-12-08T04:20:18.205Z,97424.63
2023-12-08T04:22:49.145Z,97420.06
2023-12-08T04:25:22.942Z,97403.41
2023-12-08T04:27:53.977Z,97412.44
2023-12-08T04:30:25.083Z,97406.44
2023-12-08T04:32:56.169Z,97409.84
2023-12-08T04:35:27.556Z,97398.53
2023-12-08T04:37:58.417Z,97396.59
2023-12-08T04:40:31.951Z,97384.88
2023-12-08T04:43:03.016Z,97391.38
2023-12-08T04:45:33.697Z,97389.19
2023-12-08T04:48:04.797Z,97382.84
2023-12-08T04:50:35.646Z,97393.25
2023-12-08T04:53:06.611Z,97399.56
2023-12-08T04:55:40.085Z,97379.75
2023-12-08T04:58:10.762Z,97369.41
2023-12-08T05:00:41.516Z,97375.97
2023-12-08T05:03:12.440Z,97369.75
2023-12-08T05:05:43.316Z,97377.03
2023-12-08T05:08:14.330Z,97372.41
2023-12-08T05:10:47.898Z,97377.47
2023-12-08T05:13:18.841Z,97385.00
2023-12-08T05:15:49.580Z,97383.53
2023-12-08T05:18:20.514Z,97367.16
2023-12-08T05:20:51.712Z,97377.22
2023-12-08T05:23:22.538Z,97383.31
2023-12-08T05:25:56.090Z,97369.63
2023-12-08T05:28:26.732Z,97382.34
2023-12-08T05:30:57.738Z,97379.13
2023-12-08T05:33:28.653Z,97378.34
2023-12-08T05:36:00.012Z,97371.94
2023-12-08T05:38:31.859Z,97367.59
2023-12-08T05:41:05.293Z,97357.94
2023-12-08T05:43:36.654Z,97355.56
2023-12-08T05:46:07.261Z,97353.34
2023-12-08T05:48:38.279Z,97357.13
2023-12-08T05:51:10.474Z,97342.31
2023-12-08T05:53:41.492Z,97354.88
2023-12-08T05:56:15.759Z,97344.19
2023-12-08T05:58:46.567Z,97345.66
2023-12-08T06:01:21.241Z,97349.72
2023-12-08T06:03:53.112Z,97340.91
2023-12-08T06:06:23.947Z,97356.47
2023-12-08T06:08:55.014Z,97350.50
2023-12-08T06:11:29.542Z,97352.63
2023-12-08T06:14:00.215Z,97360.47
2023-12-08T06:16:30.924Z,97350.34
2023-12-08T06:19:01.959Z,97346.00
2023-12-08T06:21:32.814Z,97339.34
2023-12-08T06:24:04.502Z,97326.91
2023-12-08T06:26:37.991Z,97323.09
2023-12-08T06:29:12.220Z,97307.50
2023-12-08T06:31:42.942Z,97303.25
2023-12-08T06:34:17.125Z,97282.25
2023-12-08T06:36:49.828Z,97270.66
2023-12-08T06:39:20.968Z,97278.47
2023-12-08T06:41:54.324Z,97279.25
2023-12-08T06:44:24.866Z,97271.09
2023-12-08T06:46:55.497Z,97268.63
2023-12-08T06:49:26.376Z,97276.47
2023-12-08T06:51:57.474Z,97290.03
2023-12-08T06:54:28.233Z,97284.66
2023-12-08T06:57:01.724Z,97277.94
2023-12-08T06:59:32.336Z,97277.53
2023-12-08T07:02:03.177Z,97284.16
2023-12-08T07:04:33.840Z,97282.63
2023-12-08T07:07:04.542Z,97276.41
2023-12-08T07:09:35.267Z,97291.47
2023-12-08T07:12:10.497Z,97273.66
2023-12-08T07:14:41.275Z,97271.84
2023-12-08T07:17:12.281Z,97268.75
2023-12-08T07:19:43.231Z,97285.81
2023-12-08T07:22:14.577Z,97273.22
2023-12-08T07:24:44.907Z,97286.56
2023-12-08T07:27:18.364Z,97283.25
2023-12-08T07:29:49.471Z,97291.16
2023-12-08T07:32:20.762Z,97287.09
2023-12-08T07:34:51.830Z,97284.16
2023-12-08T07:37:22.673Z,97302.84
2023-12-08T07:39:53.481Z,97295.16
2023-12-08T07:42:27.308Z,97293.63
2023-12-08T07:44:58.136Z,97296.63
2023-12-08T07:47:29.428Z,97305.19
2023-12-08T07:50:00.406Z,97300.00
2023-12-08T07:52:32.855Z,97317.66
2023-12-08T07:55:03.577Z,97309.44
2023-12-08T07:57:37.051Z,97300.06
2023-12-08T08:00:12.009Z,97302.97
2023-12-08T08:02:42.751Z,97291.91
2023-12-08T08:05:14.469Z,97309.16
2023-12-08T08:07:45.497Z,97301.53
2023-12-08T08:10:16.233Z,97301.22
2023-12-08T08:12:50.181Z,97303.69
2023-12-08T08:15:21.003Z,97289.53
2023-12-08T08:17:52.567Z,97301.31
2023-12-08T08:20:23.654Z,97306.56
2023-12-08T08:22:54.561Z,97310.53
2023-12-08T08:25:26.151Z,97324.50
2023-12-08T08:28:01.592Z,97328.50
2023-12-08T08:30:32.425Z,97325.63
2023-12-08T08:33:03.392Z,97323.47
2023-12-08T08:35:34.294Z,97332.38
2023-12-08T08:38:05.117Z,97328.59
2023-12-08T08:40:35.926Z,97317.25
2023-12-08T08:43:09.323Z,97325.78
2023-12-08T08:45:39.884Z,97332.28
2023-12-08T08:48:10.701Z,97329.81
2023-12-08T08:50:49.385Z,97325.53
2023-12-08T08:53:21.203Z,97333.38
2023-12-08T08:55:52.098Z,97326.97
2023-12-08T08:58:25.684Z,97323.81
2023-12-08T09:00:56.325Z,97322.38
2023-12-08T09:03:26.996Z,97326.28
2023-12-08T09:05:57.843Z,97314.59
2023-12-08T09:08:29.353Z,97315.44
2023-12-08T09:11:00.065Z,97305.13
2023-12-08T09:13:34.830Z,97308.81
2023-12-08T09:16:05.601Z,97306.41
2023-12-08T09:18:37.906Z,97300.09
2023-12-08T09:21:09.491Z,97297.09
2023-12-08T09:23:40.066Z,97297.25
2023-12-08T09:26:11.125Z,97283.44
2023-12-08T09:28:44.578Z,97285.16
2023-12-08T09:31:15.012Z,97279.34
2023-12-08T09:33:46.276Z,97271.84
2023-12-08T09:36:17.350Z,97278.75
2023-12-08T09:38:48.702Z,97271.97
2023-12-08T09:41:19.864Z,97261.16
2023-12-08T09:44:03.969Z,97259.09
2023-12-08T09:46:35.686Z,97271.03
2023-12-08T09:49:12.349Z,97261.97
2023-12-08T09:51:44.945Z,97260.22
2023-12-08T09:54:16.017Z,97246.41
2023-12-08T09:56:48.188Z,97242.81
2023-12-08T09:59:24.335Z,97243.03
2023-12-08T10:01:56.237Z,97249.47
2023-12-08T10:04:28.130Z,97233.34
2023-12-08T10:07:00.831Z,97238.47
2023-12-08T10:09:34.022Z,97259.38
2023-12-08T10:12:04.546Z,97252.44
2023-12-08T10:14:37.944Z,97254.16
2023-12-08T10:17:08.688Z,97248.41
2023-12-08T10:19:39.543Z,97233.41
2023-12-08T10:22:10.604Z,97238.47
2023-12-08T10:24:41.326Z,97243.00
2023-12-08T10:27:13.191Z,97244.44
2023-12-08T10:29:46.539Z,97240.00
2023-12-08T10:32:18.513Z,97246.53
2023-12-08T10:34:49.082Z,97251.13
2023-12-08T10:37:19.868Z,97258.41
2023-12-08T10:39:50.686Z,97272.69
2023-12-08T10:42:21.435Z,97277.63
2023-12-08T10:44:54.935Z,97274.06
2023-12-08T10:47:26.290Z,97274.66
2023-12-08T10:49:59.003Z,97271.22
2023-12-08T10:52:34.279Z,97280.59
2023-12-08T10:55:05.447Z,97271.19
2023-12-08T10:57:36.324Z,97262.59
2023-12-08T11:00:19.165Z,97259.78
2023-12-08T11:02:52.974Z,97251.03
2023-12-08T11:05:30.814Z,97261.19
2023-12-08T11:08:02.720Z,97264.78
2023-12-08T11:10:40.719Z,97269.19
2023-12-08T11:13:15.771Z,97274.41
2023-12-08T11:16:08.405Z,97263.34
2023-12-08T11:18:40.606Z,97271.91
2023-12-08T11:21:14.120Z,97272.28
2023-12-08T11:23:52.859Z,97273.81
2023-12-08T11:26:36.194Z,97273.81
2023-12-08T11:29:26.000Z,97267.31
2023-12-08T11:32:08.790Z,97266.06
2023-12-08T11:34:48.595Z,97261.16
2023-12-08T11:37:21.051Z,97260.41
2023-12-08T11:39:51.564Z,97269.09
2023-12-08T11:42:25.818Z,97269.50
2023-12-08T11:44:56.334Z,97258.38
2023-12-08T11:47:31.270Z,97255.31
2023-12-08T11:50:02.699Z,97257.09
2023-12-08T11:52:34.566Z,97265.28
2023-12-08T11:55:17.626Z,97266.03
2023-12-08T11:58:10.953Z,97274.75
2023-12-08T12:00:44.718Z,97273.50
2023-12-08T12:03:18.380Z,97258.50
2023-12-08T12:05:49.153Z,97266.50
2023-12-08T12:08:20.610Z,97266.41
2023-12-08T12:10:53.730Z,97264.38
2023-12-08T12:13:30.181Z,97255.41
2023-12-08T12:16:00.739Z,97256.50
2023-12-08T12:18:34.629Z,97247.41
2023-12-08T12:21:05.621Z,97256.41
2023-12-08T12:23:36.906Z,97255.09
2023-12-08T12:26:12.341Z,97254.34
2023-12-08T12:28:43.098Z,97255.97
2023-12-08T12:31:13.867Z,97240.97
2023-12-08T12:33:50.221Z,97240.78
2023-12-08T12:36:21.496Z,97246.75
2023-12-08T12:38:53.793Z,97242.94
2023-12-08T12:41:26.127Z,97241.94
2023-12-08T12:44:02.927Z,97229.00
2023-12-08T12:46:34.307Z,97223.03
2023-12-08T12:49:04.869Z,97224.00
2023-12-08T12:51:37.256Z,97228.59
2023-12-08T12:54:08.416Z,97231.66
2023-12-08T12:56:40.752Z,97221.22
2023-12-08T12:59:13.525Z,97230.34
2023-12-08T13:01:50.921Z,97230.00
2023-12-08T13:04:32.594Z,97233.50
2023-12-08T13:07:03.277Z,97230.13
2023-12-08T13:09:34.426Z,97227.72
2023-12-08T13:12:05.283Z,97225.00
2023-12-08T13:14:36.064Z,97222.03
2023-12-08T13:17:07.285Z,97224.78
2023-12-08T13:19:40.559Z,97228.91
2023-12-08T13:22:11.587Z,97222.03
2023-12-08T13:24:42.396Z,97225.00
2023-12-08T13:27:13.214Z,97220.84
2023-12-08T13:29:44.191Z,97212.72
2023-12-08T13:32:16.234Z,97212.84
2023-12-08T13:34:50.111Z,97219.94
2023-12-08T13:37:21.548Z,97222.34
2023-12-08T13:39:52.098Z,97220.16
2023-12-08T13:42:22.762Z,97226.19
2023-12-08T13:44:53.520Z,97221.56
2023-12-08T13:47:24.273Z,97226.72
2023-12-08T13:49:59.082Z,97230.63
2023-12-08T13:52:29.805Z,97237.22
2023-12-08T13:55:00.680Z,97246.84
2023-12-08T13:57:31.557Z,97244.44
2023-12-08T14:00:02.491Z,97243.47
2023-12-08T14:02:35.800Z,97246.22
2023-12-08T14:05:09.820Z,97258.41
2023-12-08T14:07:41.003Z,97251.59
2023-12-08T14:10:13.425Z,97264.19
2023-12-08T14:12:46.207Z,97280.88
2023-12-08T14:15:17.098Z,97271.34
2023-12-08T14:17:48.777Z,97272.03
2023-12-08T14:20:22.118Z,97275.47
2023-12-08T14:22:52.742Z,97264.97
2023-12-08T14:25:23.633Z,97277.88
2023-12-08T14:27:55.006Z,97269.94
2023-12-08T14:30:25.905Z,97260.28
2023-12-08T14:32:56.714Z,97264.56
2023-12-08T14:35:31.967Z,97270.25
2023-12-08T14:38:03.322Z,97262.06
2023-12-08T14:40:34.373Z,97262.31
2023-12-08T14:43:06.277Z,97263.22
2023-12-08T14:45:36.945Z,97260.47
2023-12-08T14:48:08.969Z,97263.56
2023-12-08T14:50:43.448Z,97256.31
2023-12-08T14:53:14.222Z,97265.63
2023-12-08T14:55:58.832Z,97261.25
2023-12-08T14:58:30.935Z,97267.94
2023-12-08T15:01:01.676Z,97266.47
2023-12-08T15:03:32.511Z,97258.97
2023-12-08T15:06:06.088Z,97268.94
2023-12-08T15:08:36.854Z,97264.19
2023-12-08T15:11:08.075Z,97264.19
2023-12-08T15:13:39.306Z,97276.16
2023-12-08T15:16:11.393Z,97280.03
2023-12-08T15:18:42.922Z,97281.28
2023-12-08T15:21:22.616Z,97281.41
2023-12-08T15:23:58.210Z,97279.53
2023-12-08T15:26:29.814Z,97279.09
2023-12-08T15:29:00.486Z,97278.94
2023-12-08T15:31:31.501Z,97283.81
2023-12-08T15:34:03.301Z,97276.28
2023-12-08T15:36:36.897Z,97280.72
2023-12-08T15:39:07.744Z,97277.56
2023-12-08T15:41:38.476Z,97278.25
2023-12-08T15:44:09.287Z,97278.09
2023-12-08T15:46:40.621Z,97288.66
2023-12-08T15:49:11.507Z,97281.25
2023-12-08T15:51:48.463Z,97285.00
2023-12-08T15:54:19.129Z,97281.75
2023-12-08T15:56:49.866Z,97279.00
2023-12-08T15:59:23.776Z,97277.41
2023-12-08T16:02:01.342Z,97286.63
2023-12-08T16:04:31.961Z,97283.19
2023-12-08T16:07:06.486Z,97295.13
2023-12-08T16:09:37.154Z,97287.03
2023-12-08T16:12:09.091Z,97292.25
2023-12-08T16:14:46.206Z,97291.66
2023-12-08T16:17:16.886Z,97285.09
2023-12-08T16:19:48.381Z,97294.31
2023-12-08T16:22:21.944Z,97290.88
2023-12-08T16:24:52.565Z,97292.25
2023-12-08T16:27:23.617Z,97294.06
2023-12-08T16:29:54.417Z,97289.69
2023-12-08T16:32:25.329Z,97290.13
2023-12-08T16:34:56.406Z,97290.81
2023-12-08T16:37:31.133Z,97292.00
2023-12-08T16:40:01.895Z,97290.28
2023-12-08T16:42:32.720Z,97288.59
2023-12-08T16:45:03.804Z,97294.66
2023-12-08T16:47:34.761Z,97294.19
2023-12-08T16:50:05.847Z,97289.59
2023-12-08T16:52:39.181Z,97289.44
2023-12-08T16:55:11.508Z,97296.94
2023-12-08T16:57:42.120Z,97304.72
2023-12-08T17:00:13.826Z,97295.22
2023-12-08T17:02:44.623Z,97302.06
2023-12-08T17:05:17.020Z,97287.38
2023-12-08T17:07:51.306Z,97292.69
2023-12-08T17:10:21.968Z,97288.66
2023-12-08T17:12:52.678Z,97291.97
2023-12-08T17:15:23.546Z,97279.94
2023-12-08T17:18:01.539Z,97267.16
2023-12-08T17:20:35.944Z,97289.84
2023-12-08T17:23:30.464Z,97284.13
2023-12-08T17:26:02.922Z,97280.53
2023-12-08T17:28:36.113Z,97288.22
2023-12-08T17:31:09.091Z,97296.41
2023-12-08T17:33:41.323Z,97296.06
2023-12-08T17:36:15.589Z,97300.34
2023-12-08T17:38:50.772Z,97299.72
2023-12-08T17:41:22.347Z,97304.09
2023-12-08T17:43:53.079Z,97306.41
2023-12-08T17:46:30.864Z,97315.94
2023-12-08T17:49:01.746Z,97318.06
2023-12-08T17:51:34.446Z,97309.09
2023-12-08T17:54:08.079Z,97322.06
2023-12-08T17:56:38.693Z,97322.84
2023-12-08T17:59:09.378Z,97320.56
2023-12-08T18:01:40.794Z,97321.22
2023-12-08T18:04:11.425Z,97310.13
2023-12-08T18:06:42.258Z,97311.44
2023-12-08T18:09:16.825Z,97313.34
2023-12-08T18:11:48.491Z,97315.88
2023-12-08T18:14:20.166Z,97320.66
2023-12-08T18:16:52.299Z,97329.88
2023-12-08T18:19:24.181Z,97325.88
2023-12-08T18:21:56.824Z,97331.00
2023-12-08T18:24:31.309Z,97337.28
2023-12-08T18:27:03.213Z,97339.81
2023-12-08T18:29:34.170Z,97350.22
2023-12-08T18:32:05.961Z,97347.75
2023-12-08T18:34:38.033Z,97348.88
2023-12-08T18:37:08.889Z,97345.84
2023-12-08T18:39:42.507Z,97350.78
2023-12-08T18:42:13.293Z,97348.22
2023-12-08T18:44:44.102Z,97352.75
2023-12-08T18:47:15.015Z,97357.28
2023-12-08T18:49:46.261Z,97354.13
2023-12-08T18:52:17.150Z,97358.41
2023-12-08T18:54:50.623Z,97361.13
2023-12-08T18:57:21.325Z,97366.72
2023-12-08T18:59:52.676Z,97366.06
2023-12-08T19:02:23.555Z,97365.28
2023-12-08T19:04:54.893Z,97370.25
2023-12-08T19:07:31.628Z,97368.94
2023-12-08T19:10:06.726Z,97368.94
2023-12-08T19:12:40.803Z,97382.97
2023-12-08T19:15:13.279Z,97383.31
2023-12-08T19:17:43.888Z,97381.66
2023-12-08T19:20:15.685Z,97383.63
2023-12-08T19:22:46.525Z,97386.69
2023-12-08T19:25:20.395Z,97390.63
2023-12-08T19:27:51.227Z,97395.25
2023-12-08T19:30:22.309Z,97385.75
2023-12-08T19:32:54.246Z,97395.38
2023-12-08T19:35:25.122Z,97391.34
2023-12-08T19:37:56.369Z,97394.19
2023-12-08T19:40:29.845Z,97394.78
2023-12-08T19:43:01.688Z,97399.25
2023-12-08T19:45:32.277Z,97407.06
2023-12-08T19:48:03.285Z,97408.06
2023-12-08T19:50:35.551Z,97412.59
2023-12-08T19:53:08.796Z,97415.66
2023-12-08T19:55:42.330Z,97406.34
2023-12-08T19:58:12.919Z,97407.88
2023-12-08T20:00:43.664Z,97402.81
2023-12-08T20:03:14.530Z,97409.50
2023-12-08T20:05:45.669Z,97408.72
2023-12-08T20:08:17.374Z,97407.22
2023-12-08T20:10:50.832Z,97407.88
2023-12-08T20:13:21.433Z,97414.22
2023-12-08T20:15:52.193Z,97410.28
2023-12-08T20:18:23.036Z,97412.16
2023-12-08T20:20:53.866Z,97407.75
2023-12-08T20:23:24.946Z,97412.38
2023-12-08T20:25:58.300Z,97406.13
2023-12-08T20:28:29.048Z,97421.78
2023-12-08T20:31:01.446Z,97421.38
2023-12-08T20:33:32.185Z,97420.25
2023-12-08T20:36:03.080Z,97421.88
2023-12-08T20:38:34.792Z,97428.03
2023-12-08T20:41:08.554Z,97432.63
2023-12-08T20:43:39.546Z,97442.31
2023-12-08T20:46:10.582Z,97443.81
2023-12-08T20:48:42.557Z,97433.63
2023-12-08T20:51:13.677Z,97433.31
2023-12-08T20:53:44.808Z,97435.72
2023-12-08T20:56:18.930Z,97441.19
2023-12-08T20:58:49.737Z,97441.19
2023-12-08T21:01:20.719Z,97441.19
2023-12-08T21:03:51.745Z,97447.00
2023-12-08T21:06:22.557Z,97449.75
2023-12-08T21:08:53.410Z,97451.19
2023-12-08T21:11:27.011Z,97442.63
2023-12-08T21:13:59.842Z,97451.50
2023-12-08T21:16:30.786Z,97445.59
2023-12-08T21:19:01.622Z,97455.34
2023-12-08T21:21:34.070Z,97451.06
2023-12-08T21:24:04.814Z,97447.91
2023-12-08T21:26:38.674Z,97456.47
2023-12-08T21:29:09.309Z,97455.69
2023-12-08T21:31:40.313Z,97450.22
2023-12-08T21:34:11.691Z,97451.63
2023-12-08T21:36:43.096Z,97457.88
2023-12-08T21:39:14.454Z,97459.41
2023-12-08T21:41:52.598Z,97464.00
2023-12-08T21:44:24.468Z,97465.00
2023-12-08T21:46:58.491Z,97470.06
2023-12-08T21:49:35.168Z,97477.09
2023-12-08T21:52:15.938Z,97475.44
2023-12-08T21:54:47.100Z,97481.13
2023-12-08T21:57:39.194Z,97476.41
2023-12-08T22:00:12.732Z,97487.16
2023-12-08T22:02:44.780Z,97481.69
2023-12-08T22:05:15.646Z,97483.66
2023-12-08T22:07:46.323Z,97486.19
2023-12-08T22:10:17.026Z,97480.50
2023-12-08T22:12:50.514Z,97476.56
2023-12-08T22:15:21.951Z,97489.91
2023-12-08T22:17:52.915Z,97482.91
2023-12-08T22:20:23.705Z,97493.84
2023-12-08T22:22:54.458Z,97488.50
2023-12-08T22:25:25.321Z,97496.38
2023-12-08T22:27:58.852Z,97495.28
2023-12-08T22:30:29.499Z,97494.75
2023-12-08T22:33:00.424Z,97491.47
2023-12-08T22:35:31.195Z,97499.56
2023-12-08T22:38:01.999Z,97503.06
2023-12-08T22:40:32.789Z,97500.25
2023-12-08T22:43:06.122Z,97507.34
2023-12-08T22:45:34.304Z,97503.22
2023-12-08T22:48:05.473Z,97496.84
2023-12-08T22:50:43.624Z,97506.47
2023-12-08T22:53:20.107Z,97510.66
2023-12-08T22:55:50.992Z,97506.72
2023-12-08T22:58:24.546Z,97508.75
2023-12-08T23:00:55.208Z,97516.22
2023-12-08T23:03:25.950Z,97511.84
2023-12-08T23:05:56.581Z,97506.25
2023-12-08T23:08:27.208Z,97505.50
2023-12-08T23:10:57.844Z,97516.00
2023-12-08T23:13:31.152Z,97518.22
2023-12-08T23:16:01.840Z,97522.03
2023-12-08T23:18:32.839Z,97516.66
2023-12-08T23:21:03.835Z,97520.50
2023-12-08T23:23:34.413Z,97522.59
2023-12-08T23:26:05.174Z,97524.47
2023-12-08T23:28:38.428Z,97534.22
2023-12-08T23:31:10.070Z,97522.25
2023-12-08T23:33:41.461Z,97528.84
2023-12-08T23:36:13.449Z,97528.94
2023-12-08T23:38:44.181Z,97536.31
2023-12-08T23:41:14.886Z,97536.41
2023-12-08T23:43:50.350Z,97535.31
2023-12-08T23:46:21.850Z,97531.47
2023-12-08T23:48:54.209Z,97534.66
2023-12-08T23:51:24.965Z,97536.31
2023-12-08T23:53:55.857Z,97536.22
2023-12-08T23:56:27.048Z,97538.94
2023-12-08T23:59:00.710Z,97541.69
